sensor_id;sensor_type;location;lat;lon;timestamp;pressure;altitude;pressure_sealevel;temperature;humidity
16690;BME280;8458;52.220;9.884;2022-08-18T00:01:45;100268.47;;;21.86;73.00
16690;BME280;8458;52.220;9.884;2022-08-18T00:04:14;100277.84;;;21.78;73.64
16690;BME280;8458;52.220;9.884;2022-08-18T00:06:40;100287.84;;;21.63;74.45
16690;BME280;8458;52.220;9.884;2022-08-18T00:09:08;100293.78;;;21.49;75.06
16690;BME280;8458;52.220;9.884;2022-08-18T00:11:38;100291.84;;;21.41;75.45
16690;BME280;8458;52.220;9.884;2022-08-18T00:14:05;100290.16;;;21.27;76.29
16690;BME280;8458;52.220;9.884;2022-08-18T00:16:33;100286.63;;;21.18;77.27
16690;BME280;8458;52.220;9.884;2022-08-18T00:18:59;100286.28;;;20.99;78.47
16690;BME280;8458;52.220;9.884;2022-08-18T00:21:26;100281.88;;;21.10;78.12
16690;BME280;8458;52.220;9.884;2022-08-18T00:23:52;100281.16;;;21.01;78.85
16690;BME280;8458;52.220;9.884;2022-08-18T00:26:19;100272.25;;;21.11;78.49
16690;BME280;8458;52.220;9.884;2022-08-18T00:28:46;100276.38;;;21.13;78.74
16690;BME280;8458;52.220;9.884;2022-08-18T00:31:13;100281.31;;;21.17;78.82
16690;BME280;8458;52.220;9.884;2022-08-18T00:33:41;100286.38;;;21.23;78.59
16690;BME280;8458;52.220;9.884;2022-08-18T00:36:08;100281.25;;;21.38;78.05
16690;BME280;8458;52.220;9.884;2022-08-18T00:38:35;100287.47;;;21.52;77.32
16690;BME280;8458;52.220;9.884;2022-08-18T00:41:01;100277.09;;;21.56;77.19
16690;BME280;8458;52.220;9.884;2022-08-18T00:43:35;100281.13;;;21.55;77.32
16690;BME280;8458;52.220;9.884;2022-08-18T00:46:05;100285.81;;;21.51;77.26
16690;BME280;8458;52.220;9.884;2022-08-18T00:48:32;100291.72;;;21.58;76.94
16690;BME280;8458;52.220;9.884;2022-08-18T00:51:03;100289.47;;;21.64;76.72
16690;BME280;8458;52.220;9.884;2022-08-18T00:53:35;100299.94;;;21.63;76.74
16690;BME280;8458;52.220;9.884;2022-08-18T00:56:10;100299.47;;;21.61;76.99
16690;BME280;8458;52.220;9.884;2022-08-18T00:58:43;100294.56;;;21.71;76.67
16690;BME280;8458;52.220;9.884;2022-08-18T01:01:13;100289.84;;;21.75;76.60
16690;BME280;8458;52.220;9.884;2022-08-18T01:03:43;100295.03;;;21.85;76.14
16690;BME280;8458;52.220;9.884;2022-08-18T01:06:23;100292.47;;;21.92;75.64
16690;BME280;8458;52.220;9.884;2022-08-18T01:08:51;100285.63;;;21.93;75.41
16690;BME280;8458;52.220;9.884;2022-08-18T01:11:19;100289.28;;;21.94;75.70
16690;BME280;8458;52.220;9.884;2022-08-18T01:13:45;100285.06;;;22.00;75.08
16690;BME280;8458;52.220;9.884;2022-08-18T01:16:12;100295.16;;;22.01;74.88
16690;BME280;8458;52.220;9.884;2022-08-18T01:18:56;100290.34;;;21.89;76.04
16690;BME280;8458;52.220;9.884;2022-08-18T01:21:44;100290.34;;;21.89;76.42
16690;BME280;8458;52.220;9.884;2022-08-18T01:24:22;100289.84;;;21.75;77.26
16690;BME280;8458;52.220;9.884;2022-08-18T01:27:13;100285.75;;;21.72;77.69
16690;BME280;8458;52.220;9.884;2022-08-18T01:29:42;100280.56;;;21.74;78.01
16690;BME280;8458;52.220;9.884;2022-08-18T01:32:10;100275.38;;;21.76;78.06
16690;BME280;8458;52.220;9.884;2022-08-18T01:34:37;100283.75;;;21.85;77.90
16690;BME280;8458;52.220;9.884;2022-08-18T01:37:04;100296.00;;;21.89;77.79
16690;BME280;8458;52.220;9.884;2022-08-18T01:39:32;100294.44;;;21.92;77.50
16690;BME280;8458;52.220;9.884;2022-08-18T01:41:59;100298.22;;;21.96;77.05
16690;BME280;8458;52.220;9.884;2022-08-18T01:44:28;100297.97;;;22.01;77.17
16690;BME280;8458;52.220;9.884;2022-08-18T01:46:55;100281.88;;;22.01;77.23
16690;BME280;8458;52.220;9.884;2022-08-18T01:49:22;100285.88;;;22.00;77.33
16690;BME280;8458;52.220;9.884;2022-08-18T01:51:49;100288.47;;;22.06;77.35
16690;BME280;8458;52.220;9.884;2022-08-18T01:54:17;100284.47;;;22.07;77.32
16690;BME280;8458;52.220;9.884;2022-08-18T01:56:44;100286.69;;;22.01;77.33
16690;BME280;8458;52.220;9.884;2022-08-18T01:59:12;100286.69;;;22.01;77.38
16690;BME280;8458;52.220;9.884;2022-08-18T02:01:40;100293.03;;;21.98;77.95
16690;BME280;8458;52.220;9.884;2022-08-18T02:04:08;100295.50;;;21.99;77.89
16690;BME280;8458;52.220;9.884;2022-08-18T02:06:37;100296.22;;;21.96;78.05
16690;BME280;8458;52.220;9.884;2022-08-18T02:09:04;100303.25;;;21.90;78.76
16690;BME280;8458;52.220;9.884;2022-08-18T02:11:30;100291.50;;;21.76;79.66
16690;BME280;8458;52.220;9.884;2022-08-18T02:13:58;100295.25;;;21.67;80.31
16690;BME280;8458;52.220;9.884;2022-08-18T02:16:25;100300.63;;;21.60;81.36
16690;BME280;8458;52.220;9.884;2022-08-18T02:18:52;100296.38;;;21.54;82.12
16690;BME280;8458;52.220;9.884;2022-08-18T02:21:19;100291.44;;;21.51;82.51
16690;BME280;8458;52.220;9.884;2022-08-18T02:23:46;100295.91;;;21.52;82.64
16690;BME280;8458;52.220;9.884;2022-08-18T02:26:15;100296.78;;;21.44;83.14
16690;BME280;8458;52.220;9.884;2022-08-18T02:28:42;100297.25;;;21.34;84.15
16690;BME280;8458;52.220;9.884;2022-08-18T02:31:12;100298.19;;;21.38;83.75
16690;BME280;8458;52.220;9.884;2022-08-18T02:33:39;100293.03;;;21.40;83.65
16690;BME280;8458;52.220;9.884;2022-08-18T02:36:07;100300.66;;;21.39;83.68
16690;BME280;8458;52.220;9.884;2022-08-18T02:38:34;100296.06;;;21.35;84.03
16690;BME280;8458;52.220;9.884;2022-08-18T02:41:03;100299.56;;;21.31;84.24
16690;BME280;8458;52.220;9.884;2022-08-18T02:43:33;100300.41;;;21.32;84.49
16690;BME280;8458;52.220;9.884;2022-08-18T02:46:01;100299.53;;;21.19;85.18
16690;BME280;8458;52.220;9.884;2022-08-18T02:48:29;100300.56;;;21.14;85.99
16690;BME280;8458;52.220;9.884;2022-08-18T02:51:00;100303.94;;;21.08;86.93
16690;BME280;8458;52.220;9.884;2022-08-18T02:53:27;100298.81;;;20.89;88.95
16690;BME280;8458;52.220;9.884;2022-08-18T02:55:54;100300.47;;;20.90;89.25
16690;BME280;8458;52.220;9.884;2022-08-18T02:58:21;100303.75;;;20.71;90.87
16690;BME280;8458;52.220;9.884;2022-08-18T03:00:47;100305.13;;;20.65;91.56
16690;BME280;8458;52.220;9.884;2022-08-18T03:03:14;100292.97;;;20.43;94.01
16690;BME280;8458;52.220;9.884;2022-08-18T03:05:42;100289.22;;;20.39;94.84
16690;BME280;8458;52.220;9.884;2022-08-18T03:08:08;100292.75;;;20.27;96.27
16690;BME280;8458;52.220;9.884;2022-08-18T03:10:35;100305.66;;;20.28;96.15
16690;BME280;8458;52.220;9.884;2022-08-18T03:13:03;100303.38;;;20.21;97.05
16690;BME280;8458;52.220;9.884;2022-08-18T03:15:30;100305.69;;;20.19;97.37
16690;BME280;8458;52.220;9.884;2022-08-18T03:17:57;100305.50;;;20.24;96.99
16690;BME280;8458;52.220;9.884;2022-08-18T03:20:24;100303.88;;;20.23;96.56
16690;BME280;8458;52.220;9.884;2022-08-18T03:22:52;100311.22;;;20.37;95.91
16690;BME280;8458;52.220;9.884;2022-08-18T03:25:19;100304.91;;;20.40;95.53
16690;BME280;8458;52.220;9.884;2022-08-18T03:27:45;100305.22;;;20.47;95.23
16690;BME280;8458;52.220;9.884;2022-08-18T03:30:12;100306.88;;;20.48;95.00
16690;BME280;8458;52.220;9.884;2022-08-18T03:32:39;100294.25;;;20.54;94.26
16690;BME280;8458;52.220;9.884;2022-08-18T03:35:06;100301.44;;;20.64;93.61
16690;BME280;8458;52.220;9.884;2022-08-18T03:37:33;100301.91;;;20.75;92.63
16690;BME280;8458;52.220;9.884;2022-08-18T03:40:01;100296.06;;;20.80;91.77
16690;BME280;8458;52.220;9.884;2022-08-18T03:42:27;100299.38;;;20.82;91.22
16690;BME280;8458;52.220;9.884;2022-08-18T03:44:54;100297.84;;;20.85;90.79
16690;BME280;8458;52.220;9.884;2022-08-18T03:47:20;100302.38;;;20.77;90.80
16690;BME280;8458;52.220;9.884;2022-08-18T03:49:47;100302.38;;;20.77;90.85
16690;BME280;8458;52.220;9.884;2022-08-18T03:52:14;100301.56;;;20.76;90.79
16690;BME280;8458;52.220;9.884;2022-08-18T03:54:41;100301.34;;;20.82;90.55
16690;BME280;8458;52.220;9.884;2022-08-18T03:57:10;100306.63;;;20.83;90.20
16690;BME280;8458;52.220;9.884;2022-08-18T03:59:38;100314.63;;;20.81;90.09
16690;BME280;8458;52.220;9.884;2022-08-18T04:02:08;100308.69;;;20.74;90.35
16690;BME280;8458;52.220;9.884;2022-08-18T04:04:35;100316.38;;;20.65;90.83
16690;BME280;8458;52.220;9.884;2022-08-18T04:07:06;100314.22;;;20.62;91.27
16690;BME280;8458;52.220;9.884;2022-08-18T04:09:34;100319.94;;;20.53;91.35
16690;BME280;8458;52.220;9.884;2022-08-18T04:12:04;100318.81;;;20.45;91.41
16690;BME280;8458;52.220;9.884;2022-08-18T04:14:39;100336.38;;;20.42;91.85
16690;BME280;8458;52.220;9.884;2022-08-18T04:17:07;100324.72;;;20.52;91.23
16690;BME280;8458;52.220;9.884;2022-08-18T04:19:34;100337.44;;;20.58;90.99
16690;BME280;8458;52.220;9.884;2022-08-18T04:22:02;100335.59;;;20.63;90.72
16690;BME280;8458;52.220;9.884;2022-08-18T04:24:30;100334.78;;;20.62;90.69
16690;BME280;8458;52.220;9.884;2022-08-18T04:26:58;100340.22;;;20.67;90.58
16690;BME280;8458;52.220;9.884;2022-08-18T04:29:26;100336.59;;;20.67;90.40
16690;BME280;8458;52.220;9.884;2022-08-18T04:31:54;100340.69;;;20.69;90.52
16690;BME280;8458;52.220;9.884;2022-08-18T04:34:21;100348.00;;;20.70;90.62
16690;BME280;8458;52.220;9.884;2022-08-18T04:36:49;100358.72;;;20.77;90.11
16690;BME280;8458;52.220;9.884;2022-08-18T04:39:18;100351.44;;;20.76;90.40
16690;BME280;8458;52.220;9.884;2022-08-18T04:41:45;100347.31;;;20.73;90.64
16690;BME280;8458;52.220;9.884;2022-08-18T04:44:13;100355.91;;;20.77;90.60
16690;BME280;8458;52.220;9.884;2022-08-18T04:46:44;100350.47;;;20.72;91.45
16690;BME280;8458;52.220;9.884;2022-08-18T04:49:14;100347.94;;;20.79;91.28
16690;BME280;8458;52.220;9.884;2022-08-18T04:51:45;100346.41;;;20.82;91.87
16690;BME280;8458;52.220;9.884;2022-08-18T04:54:34;100346.06;;;20.83;92.13
16690;BME280;8458;52.220;9.884;2022-08-18T04:57:07;100344.84;;;20.72;93.13
16690;BME280;8458;52.220;9.884;2022-08-18T04:59:35;100344.72;;;20.68;93.79
16690;BME280;8458;52.220;9.884;2022-08-18T05:02:02;100355.13;;;20.68;94.45
16690;BME280;8458;52.220;9.884;2022-08-18T05:04:34;100358.63;;;20.65;95.44
16690;BME280;8458;52.220;9.884;2022-08-18T05:07:02;100361.44;;;20.65;95.66
16690;BME280;8458;52.220;9.884;2022-08-18T05:09:31;100358.63;;;20.65;96.17
16690;BME280;8458;52.220;9.884;2022-08-18T05:11:58;100363.28;;;20.60;97.22
16690;BME280;8458;52.220;9.884;2022-08-18T05:14:24;100347.34;;;20.35;100.00
16690;BME280;8458;52.220;9.884;2022-08-18T05:16:51;100359.75;;;20.34;100.00
16690;BME280;8458;52.220;9.884;2022-08-18T05:19:19;100351.53;;;20.20;100.00
16690;BME280;8458;52.220;9.884;2022-08-18T05:21:48;100354.03;;;20.21;100.00
16690;BME280;8458;52.220;9.884;2022-08-18T05:24:15;100353.34;;;20.24;100.00
16690;BME280;8458;52.220;9.884;2022-08-18T05:26:42;100350.19;;;20.26;100.00
16690;BME280;8458;52.220;9.884;2022-08-18T05:29:09;100349.97;;;20.40;100.00
16690;BME280;8458;52.220;9.884;2022-08-18T05:31:36;100349.78;;;20.45;100.00
16690;BME280;8458;52.220;9.884;2022-08-18T05:34:03;100350.56;;;20.54;100.00
16690;BME280;8458;52.220;9.884;2022-08-18T05:36:54;100360.47;;;20.60;100.00
16690;BME280;8458;52.220;9.884;2022-08-18T05:39:25;100362.22;;;20.74;99.70
16690;BME280;8458;52.220;9.884;2022-08-18T05:42:00;100366.56;;;20.71;99.94
16690;BME280;8458;52.220;9.884;2022-08-18T05:44:33;100365.75;;;20.92;98.72
16690;BME280;8458;52.220;9.884;2022-08-18T05:47:04;100368.50;;;21.01;98.06
16690;BME280;8458;52.220;9.884;2022-08-18T05:49:33;100370.22;;;21.14;97.53
16690;BME280;8458;52.220;9.884;2022-08-18T05:52:03;100370.16;;;21.23;97.37
16690;BME280;8458;52.220;9.884;2022-08-18T05:54:37;100371.94;;;21.27;96.76
16690;BME280;8458;52.220;9.884;2022-08-18T05:57:23;100383.22;;;21.27;96.95
16690;BME280;8458;52.220;9.884;2022-08-18T05:59:51;100379.00;;;21.34;96.15
16690;BME280;8458;52.220;9.884;2022-08-18T06:02:27;100376.66;;;21.36;96.68
16690;BME280;8458;52.220;9.884;2022-08-18T06:05:00;100382.75;;;21.38;96.64
16690;BME280;8458;52.220;9.884;2022-08-18T06:07:34;100383.72;;;21.42;95.96
16690;BME280;8458;52.220;9.884;2022-08-18T06:10:01;100380.56;;;21.22;96.78
16690;BME280;8458;52.220;9.884;2022-08-18T06:12:32;100389.09;;;21.35;96.67
16690;BME280;8458;52.220;9.884;2022-08-18T06:15:03;100383.22;;;21.27;96.96
16690;BME280;8458;52.220;9.884;2022-08-18T06:17:46;100381.75;;;21.21;97.78
16690;BME280;8458;52.220;9.884;2022-08-18T06:20:23;100386.78;;;21.16;97.90
16690;BME280;8458;52.220;9.884;2022-08-18T06:23:01;100378.66;;;21.14;97.99
16690;BME280;8458;52.220;9.884;2022-08-18T06:25:34;100378.03;;;21.29;97.75
16690;BME280;8458;52.220;9.884;2022-08-18T06:28:05;100378.94;;;21.21;98.19
16690;BME280;8458;52.220;9.884;2022-08-18T06:30:44;100384.44;;;21.18;98.95
16690;BME280;8458;52.220;9.884;2022-08-18T06:33:24;100385.53;;;21.25;97.86
16690;BME280;8458;52.220;9.884;2022-08-18T06:35:59;100378.25;;;21.24;98.39
16690;BME280;8458;52.220;9.884;2022-08-18T06:38:41;100386.97;;;21.31;96.54
16690;BME280;8458;52.220;9.884;2022-08-18T06:41:16;100393.50;;;21.23;96.31
16690;BME280;8458;52.220;9.884;2022-08-18T06:43:52;100389.53;;;21.24;95.50
16690;BME280;8458;52.220;9.884;2022-08-18T06:46:29;100401.75;;;21.28;95.27
16690;BME280;8458;52.220;9.884;2022-08-18T06:49:01;100399.97;;;21.24;95.97
16690;BME280;8458;52.220;9.884;2022-08-18T06:51:28;100397.91;;;21.33;95.55
16690;BME280;8458;52.220;9.884;2022-08-18T06:53:59;100405.19;;;21.34;94.06
16690;BME280;8458;52.220;9.884;2022-08-18T06:56:32;100406.28;;;21.42;94.51
16690;BME280;8458;52.220;9.884;2022-08-18T06:59:18;100408.78;;;21.64;94.17
16690;BME280;8458;52.220;9.884;2022-08-18T07:01:47;100405.78;;;21.82;93.93
16690;BME280;8458;52.220;9.884;2022-08-18T07:04:36;100409.47;;;22.07;92.88
16690;BME280;8458;52.220;9.884;2022-08-18T07:07:28;100413.41;;;22.27;89.49
16690;BME280;8458;52.220;9.884;2022-08-18T07:09:57;100419.72;;;22.12;88.19
16690;BME280;8458;52.220;9.884;2022-08-18T07:12:25;100420.34;;;22.17;89.21
16690;BME280;8458;52.220;9.884;2022-08-18T07:14:54;100425.28;;;22.20;88.31
16690;BME280;8458;52.220;9.884;2022-08-18T07:17:26;100422.81;;;22.19;89.76
16690;BME280;8458;52.220;9.884;2022-08-18T07:19:58;100418.88;;;22.32;88.36
16690;BME280;8458;52.220;9.884;2022-08-18T07:22:25;100423.78;;;22.48;86.54
16690;BME280;8458;52.220;9.884;2022-08-18T07:24:53;100424.50;;;22.32;88.01
16690;BME280;8458;52.220;9.884;2022-08-18T07:27:42;100422.63;;;22.49;87.79
16690;BME280;8458;52.220;9.884;2022-08-18T07:30:12;100426.16;;;22.46;86.98
16690;BME280;8458;52.220;9.884;2022-08-18T07:32:43;100430.41;;;22.52;86.13
16690;BME280;8458;52.220;9.884;2022-08-18T07:35:14;100430.41;;;22.52;86.22
16690;BME280;8458;52.220;9.884;2022-08-18T07:37:47;100430.66;;;22.59;85.42
16690;BME280;8458;52.220;9.884;2022-08-18T07:40:21;100429.94;;;22.50;84.86
16690;BME280;8458;52.220;9.884;2022-08-18T07:42:55;100428.53;;;22.44;85.32
16690;BME280;8458;52.220;9.884;2022-08-18T07:45:26;100432.06;;;22.53;85.47
16690;BME280;8458;52.220;9.884;2022-08-18T07:47:58;100427.56;;;22.40;84.38
16690;BME280;8458;52.220;9.884;2022-08-18T07:50:33;100433.47;;;22.59;85.73
16690;BME280;8458;52.220;9.884;2022-08-18T07:53:10;100436.50;;;22.79;84.95
16690;BME280;8458;52.220;9.884;2022-08-18T07:55:42;100433.22;;;22.89;82.47
16690;BME280;8458;52.220;9.884;2022-08-18T07:58:22;100435.59;;;22.87;81.19
16690;BME280;8458;52.220;9.884;2022-08-18T08:00:53;100439.13;;;22.84;79.59
16690;BME280;8458;52.220;9.884;2022-08-18T08:03:29;100433.34;;;22.80;80.12
16690;BME280;8458;52.220;9.884;2022-08-18T08:06:03;100437.47;;;22.70;80.12
16690;BME280;8458;52.220;9.884;2022-08-18T08:08:39;100435.59;;;22.87;80.80
16690;BME280;8458;52.220;9.884;2022-08-18T08:11:15;100432.63;;;22.96;79.53
16690;BME280;8458;52.220;9.884;2022-08-18T08:13:57;100430.50;;;22.92;77.48
16690;BME280;8458;52.220;9.884;2022-08-18T08:16:35;100438.16;;;22.92;77.46
16690;BME280;8458;52.220;9.884;2022-08-18T08:19:23;100432.63;;;22.96;79.21
16690;BME280;8458;52.220;9.884;2022-08-18T08:21:59;100435.94;;;22.98;79.39
16690;BME280;8458;52.220;9.884;2022-08-18T08:24:32;100442.16;;;23.03;80.94
16690;BME280;8458;52.220;9.884;2022-08-18T08:27:10;100448.75;;;23.07;80.21
16690;BME280;8458;52.220;9.884;2022-08-18T08:29:46;100448.16;;;23.14;81.71
16690;BME280;8458;52.220;9.884;2022-08-18T08:32:22;100449.22;;;23.22;82.14
16690;BME280;8458;52.220;9.884;2022-08-18T08:34:56;100446.84;;;23.36;81.89
16690;BME280;8458;52.220;9.884;2022-08-18T08:37:31;100447.53;;;23.45;81.66
16690;BME280;8458;52.220;9.884;2022-08-18T08:40:02;100445.88;;;23.44;82.02
16690;BME280;8458;52.220;9.884;2022-08-18T08:42:37;100445.34;;;23.67;80.83
16690;BME280;8458;52.220;9.884;2022-08-18T08:45:09;100443.34;;;23.84;80.49
16690;BME280;8458;52.220;9.884;2022-08-18T08:47:40;100442.97;;;23.97;78.44
16690;BME280;8458;52.220;9.884;2022-08-18T08:50:12;100441.97;;;23.77;78.93
16690;BME280;8458;52.220;9.884;2022-08-18T08:52:41;100453.91;;;23.71;79.31
16690;BME280;8458;52.220;9.884;2022-08-18T08:55:14;100446.66;;;23.86;79.30
16690;BME280;8458;52.220;9.884;2022-08-18T08:57:47;100445.38;;;24.11;79.13
16690;BME280;8458;52.220;9.884;2022-08-18T09:00:17;100443.25;;;24.08;77.43
16690;BME280;8458;52.220;9.884;2022-08-18T09:03:21;100446.00;;;24.21;77.63
16690;BME280;8458;52.220;9.884;2022-08-18T09:05:56;100440.28;;;24.17;76.97
16690;BME280;8458;52.220;9.884;2022-08-18T09:08:40;100433.22;;;24.27;77.48
16690;BME280;8458;52.220;9.884;2022-08-18T09:11:30;100435.34;;;24.30;75.31
16690;BME280;8458;52.220;9.884;2022-08-18T09:17:13;100442.00;;;24.22;75.54
16690;BME280;8458;52.220;9.884;2022-08-18T09:20:00;100448.50;;;24.38;76.39
16690;BME280;8458;52.220;9.884;2022-08-18T09:22:39;100450.78;;;24.48;74.92
16690;BME280;8458;52.220;9.884;2022-08-18T09:25:30;100451.25;;;24.34;74.14
16690;BME280;8458;52.220;9.884;2022-08-18T09:28:07;100455.25;;;24.33;74.56
16690;BME280;8458;52.220;9.884;2022-08-18T09:30:39;100451.47;;;24.13;74.45
16690;BME280;8458;52.220;9.884;2022-08-18T09:33:19;100449.69;;;24.37;73.33
16690;BME280;8458;52.220;9.884;2022-08-18T09:35:57;100449.31;;;24.55;73.21
16690;BME280;8458;52.220;9.884;2022-08-18T09:38:27;100453.81;;;24.56;73.73
16690;BME280;8458;52.220;9.884;2022-08-18T09:41:16;100452.38;;;24.62;71.93
16690;BME280;8458;52.220;9.884;2022-08-18T09:44:01;100460.22;;;24.68;72.12
16690;BME280;8458;52.220;9.884;2022-08-18T09:46:55;100458.84;;;24.78;71.48
16690;BME280;8458;52.220;9.884;2022-08-18T09:49:45;100460.28;;;25.04;71.29
16690;BME280;8458;52.220;9.884;2022-08-18T09:55:50;100456.41;;;25.12;69.41
16690;BME280;8458;52.220;9.884;2022-08-18T09:58:25;100460.31;;;24.88;70.14
16690;BME280;8458;52.220;9.884;2022-08-18T10:01:22;100465.00;;;24.80;71.49
16690;BME280;8458;52.220;9.884;2022-08-18T10:04:16;100462.50;;;24.95;69.44
16690;BME280;8458;52.220;9.884;2022-08-18T10:06:46;100453.88;;;25.07;70.23
16690;BME280;8458;52.220;9.884;2022-08-18T10:09:20;100457.03;;;25.21;69.22
16690;BME280;8458;52.220;9.884;2022-08-18T10:11:59;100460.94;;;25.33;68.73
16690;BME280;8458;52.220;9.884;2022-08-18T10:14:50;100453.44;;;25.24;68.62
16690;BME280;8458;52.220;9.884;2022-08-18T10:17:33;100454.94;;;25.18;67.97
16690;BME280;8458;52.220;9.884;2022-08-18T10:20:18;100454.41;;;25.29;68.50
16690;BME280;8458;52.220;9.884;2022-08-18T10:22:48;100455.75;;;25.19;69.28
16690;BME280;8458;52.220;9.884;2022-08-18T10:25:32;100453.34;;;25.37;68.03
16690;BME280;8458;52.220;9.884;2022-08-18T10:27:59;100456.94;;;25.34;67.60
16690;BME280;8458;52.220;9.884;2022-08-18T10:31:00;100460.31;;;25.23;67.92
16690;BME280;8458;52.220;9.884;2022-08-18T10:33:55;100453.88;;;25.27;67.54
16690;BME280;8458;52.220;9.884;2022-08-18T10:36:36;100457.31;;;25.16;67.78
16690;BME280;8458;52.220;9.884;2022-08-18T10:39:04;100453.88;;;25.07;68.25
16690;BME280;8458;52.220;9.884;2022-08-18T10:41:32;100449.69;;;25.01;68.05
16690;BME280;8458;52.220;9.884;2022-08-18T10:44:01;100443.03;;;25.29;68.40
16690;BME280;8458;52.220;9.884;2022-08-18T10:46:31;100449.09;;;25.11;66.88
16690;BME280;8458;52.220;9.884;2022-08-18T10:49:14;100454.63;;;25.23;67.37
16690;BME280;8458;52.220;9.884;2022-08-18T10:52:04;100439.03;;;25.49;66.74
16690;BME280;8458;52.220;9.884;2022-08-18T10:54:43;100445.81;;;25.84;65.99
16690;BME280;8458;52.220;9.884;2022-08-18T10:57:19;100448.94;;;26.18;66.16
16690;BME280;8458;52.220;9.884;2022-08-18T10:59:53;100458.16;;;26.34;62.45
16690;BME280;8458;52.220;9.884;2022-08-18T11:02:40;100449.00;;;26.21;63.51
16690;BME280;8458;52.220;9.884;2022-08-18T11:05:17;100450.19;;;26.20;64.28
16690;BME280;8458;52.220;9.884;2022-08-18T11:07:45;100450.22;;;26.43;63.36
16690;BME280;8458;52.220;9.884;2022-08-18T11:10:17;100454.00;;;26.51;61.47
16690;BME280;8458;52.220;9.884;2022-08-18T11:13:01;100451.53;;;26.26;60.88
16690;BME280;8458;52.220;9.884;2022-08-18T11:15:36;100437.44;;;26.57;61.96
16690;BME280;8458;52.220;9.884;2022-08-18T11:18:15;100442.81;;;26.85;61.61
16690;BME280;8458;52.220;9.884;2022-08-18T11:20:48;100437.44;;;27.07;62.86
16690;BME280;8458;52.220;9.884;2022-08-18T11:23:16;100438.66;;;27.06;61.72
16690;BME280;8458;52.220;9.884;2022-08-18T11:25:43;100435.03;;;27.35;61.39
16690;BME280;8458;52.220;9.884;2022-08-18T11:28:14;100430.97;;;27.36;59.58
16690;BME280;8458;52.220;9.884;2022-08-18T11:30:44;100435.22;;;27.23;60.02
16690;BME280;8458;52.220;9.884;2022-08-18T11:33:14;100426.75;;;27.00;59.45
16690;BME280;8458;52.220;9.884;2022-08-18T11:35:47;100429.78;;;26.84;60.79
16690;BME280;8458;52.220;9.884;2022-08-18T11:38:15;100428.38;;;26.97;60.84
16690;BME280;8458;52.220;9.884;2022-08-18T11:40:44;100433.66;;;27.26;60.05
16690;BME280;8458;52.220;9.884;2022-08-18T11:43:15;100431.31;;;27.31;58.37
16690;BME280;8458;52.220;9.884;2022-08-18T11:45:52;100431.97;;;27.21;57.87
16690;BME280;8458;52.220;9.884;2022-08-18T11:48:22;100418.56;;;27.52;59.16
16690;BME280;8458;52.220;9.884;2022-08-18T11:51:02;100415.31;;;27.50;58.62
16690;BME280;8458;52.220;9.884;2022-08-18T11:53:37;100408.50;;;27.58;59.26
16690;BME280;8458;52.220;9.884;2022-08-18T11:56:14;100413.91;;;27.70;58.73
16690;BME280;8458;52.220;9.884;2022-08-18T11:58:44;100416.69;;;27.97;58.52
16690;BME280;8458;52.220;9.884;2022-08-18T12:01:30;100406.72;;;27.84;56.34
16690;BME280;8458;52.220;9.884;2022-08-18T12:03:58;100406.16;;;28.01;56.88
16690;BME280;8458;52.220;9.884;2022-08-18T12:06:34;100403.97;;;28.29;58.25
16690;BME280;8458;52.220;9.884;2022-08-18T12:09:03;100395.47;;;28.36;57.28
16690;BME280;8458;52.220;9.884;2022-08-18T12:11:32;100391.06;;;28.46;55.52
16690;BME280;8458;52.220;9.884;2022-08-18T12:14:04;100390.88;;;28.24;55.02
16690;BME280;8458;52.220;9.884;2022-08-18T12:16:37;100383.75;;;28.44;56.85
16690;BME280;8458;52.220;9.884;2022-08-18T12:19:06;100389.47;;;28.44;54.68
16690;BME280;8458;52.220;9.884;2022-08-18T12:21:38;100386.06;;;28.28;56.26
16690;BME280;8458;52.220;9.884;2022-08-18T12:24:11;100391.06;;;28.46;55.79
16690;BME280;8458;52.220;9.884;2022-08-18T12:26:38;100383.97;;;28.73;54.68
16690;BME280;8458;52.220;9.884;2022-08-18T12:29:05;100388.81;;;28.62;55.08
16690;BME280;8458;52.220;9.884;2022-08-18T12:31:31;100388.91;;;28.32;53.40
16690;BME280;8458;52.220;9.884;2022-08-18T12:33:58;100389.94;;;28.54;54.47
16690;BME280;8458;52.220;9.884;2022-08-18T12:36:26;100397.16;;;28.40;55.20
16690;BME280;8458;52.220;9.884;2022-08-18T12:38:55;100399.94;;;28.33;55.10
16690;BME280;8458;52.220;9.884;2022-08-18T12:41:22;100394.38;;;28.48;54.38
16690;BME280;8458;52.220;9.884;2022-08-18T12:43:48;100386.84;;;28.29;55.01
16690;BME280;8458;52.220;9.884;2022-08-18T12:46:15;100387.69;;;27.91;55.72
16690;BME280;8458;52.220;9.884;2022-08-18T12:48:42;100386.84;;;27.50;56.93
16690;BME280;8458;52.220;9.884;2022-08-18T12:51:08;100387.78;;;27.61;58.31
16690;BME280;8458;52.220;9.884;2022-08-18T12:53:36;100392.22;;;27.59;57.91
16690;BME280;8458;52.220;9.884;2022-08-18T12:56:05;100383.88;;;27.77;57.99
16690;BME280;8458;52.220;9.884;2022-08-18T12:58:33;100386.50;;;27.93;57.17
16690;BME280;8458;52.220;9.884;2022-08-18T13:00:59;100383.53;;;27.82;56.72
16690;BME280;8458;52.220;9.884;2022-08-18T13:03:26;100383.38;;;27.67;56.40
16690;BME280;8458;52.220;9.884;2022-08-18T13:05:53;100373.91;;;27.56;56.40
16690;BME280;8458;52.220;9.884;2022-08-18T13:08:21;100365.69;;;27.51;57.17
16690;BME280;8458;52.220;9.884;2022-08-18T13:10:47;100373.13;;;27.59;56.81
16690;BME280;8458;52.220;9.884;2022-08-18T13:13:17;100376.25;;;27.50;57.08
16690;BME280;8458;52.220;9.884;2022-08-18T13:15:44;100382.16;;;27.68;56.45
16690;BME280;8458;52.220;9.884;2022-08-18T13:18:11;100383.69;;;27.59;56.88
16690;BME280;8458;52.220;9.884;2022-08-18T13:20:39;100390.16;;;27.55;56.67
16690;BME280;8458;52.220;9.884;2022-08-18T13:23:05;100377.84;;;27.48;56.57
16690;BME280;8458;52.220;9.884;2022-08-18T13:25:32;100379.34;;;27.34;56.64
16690;BME280;8458;52.220;9.884;2022-08-18T13:27:59;100373.19;;;27.32;56.50
16690;BME280;8458;52.220;9.884;2022-08-18T13:30:27;100377.00;;;27.44;57.46
16690;BME280;8458;52.220;9.884;2022-08-18T13:32:53;100369.88;;;27.61;58.26